Home > Products > Valid Products > TAF

000
FTUS45 KRIW 052051 AAA
TAFCOD
TAF AMD
KCOD 052051Z 0521/0618 36012G22KT 5SM -SHRA BR SCT007 BKN016
     FM052300 01012G18KT 5SM -SHRA BR SCT007 OVC014
     FM061500 34008KT P6SM -SHRA BKN012
      AMD LTD TO CLD VIS AND WIND=



000
FTUS45 KRIW 052050 AAA
TAFLND
TAF AMD
KLND 052050Z 0521/0618 VRB08G15KT 5SM -SHRA BR SCT025 BKN050
     FM060300 03008KT 5SM -SHRA BR SCT008 OVC018
     FM060700 06009KT 4SM -SHRA BR SCT006 OVC015
     FM061500 VRB06KT 5SM -SHRA BR SCT009 OVC020=



000
FTUS45 KRIW 052048 AAA
TAFRKS
TAF AMD
KRKS 052048Z 0521/0618 27015KT 3SM SHRA BR SCT012 OVC035
     FM052300 29010KT 4SM -SHRA BR SCT012 OVC020
     FM060700 06010KT 4SM -SHRA BR SCT008 OVC015
     FM061500 07012KT 5SM -SHRA BR SCT010 OVC025=



000
FTUS45 KRIW 051720
TAFJAC
TAF
KJAC 051720Z 0518/0618 21006KT P6SM VCSH SCT050 OVC080
     FM052000 22011KT P6SM VCTS SCT035CB BKN060
     FM060300 01008KT 5SM -SHRA BR SCT020 OVC035
      AMD LTD TO CLD VIS AND WIND=



000
FTUS45 KRIW 051720
TAFLND
TAF
KLND 051720Z 0518/0618 VRB08G15KT P6SM VCTS SCT035CB BKN060
     FM060300 03008KT 5SM -SHRA BR SCT008 OVC018
     FM060700 06009KT 4SM -SHRA BR SCT006 OVC015
     FM061500 VRB06KT 5SM -SHRA BR SCT009 OVC020=



000
FTUS45 KRIW 051720
TAFCOD
TAF
KCOD 051720Z 0518/0618 36015G25KT P6SM BKN020
     FM052000 36012G22KT P6SM VCSH BKN016
     FM052300 01012G18KT 5SM -SHRA BR SCT007 OVC014
     FM061500 34008KT P6SM -SHRA BKN012
      AMD LTD TO CLD VIS AND WIND=



000
FTUS45 KRIW 051720
TAFRKS
TAF
KRKS 051720Z 0518/0618 27015KT P6SM -SHRA OVC060
     FM052300 29010KT 5SM -SHRA BR SCT012 OVC020
     FM060700 06010KT 4SM -SHRA BR SCT008 OVC015
     FM061500 07012KT 5SM -SHRA BR SCT010 OVC025=



000
FTUS45 KRIW 051720
TAFBPI
TAF
KBPI 051720Z 0518/0618 31008KT P6SM -SHRA SCT030 OVC060
     FM060200 16006KT 4SM -SHRA BR SCT008 OVC020
     FM061400 VRB05KT 5SM -SHRA BR SCT015 OVC035=



000
FTUS45 KRIW 051720
TAFCPR
TAF
KCPR 051720Z 0518/0618 36014G20KT P6SM VCTS SCT035CB BKN060
     FM060200 01013KT 4SM -SHRA BR SCT009 OVC015
     FM061600 05014KT 5SM -SHRA SCT009 OVC020=



000
FTUS45 KRIW 051720
TAFCPR
TAF
KCPR 051720Z 0518/0618 36014G20KT P6SM VCTS SCT035CB BKN060
     FM060200 01013KT 4SM -SHRA BR SCT009 OVC015
     FM061600 05014KT 5SM -SHRA SCT009 OVC020=



000
FTUS45 KRIW 051720
TAFRIW
TAF
KRIW 051720Z 0518/0618 VRB06KT P6SM BKN100
     FM052100 03010KT P6SM VCTS SCT030CB BKN060
     FM060200 01014KT 4SM -SHRA BR SCT007 OVC015
     FM061600 02008KT 5SM -SHRA BR SCT010 OVC020=



000
FTUS45 KRIW 051720
TAFWRL
TAF
KWRL 051720Z 0518/0618 32014KT 5SM -SHRA BR SCT030 BKN060
     FM060100 32014G20KT 4SM -SHRA BR SCT008 OVC015
     FM061500 31008KT P6SM VCSH OVC025=



000
FTUS45 KRIW 051720
TAFBPI
TAF
KBPI 051720Z 0518/0618 31008KT P6SM -SHRA SCT030 OVC060
     FM060200 16006KT 4SM -SHRA BR SCT008 OVC020
     FM061400 VRB05KT 5SM -SHRA BR SCT015 OVC035=



000
FTUS45 KRIW 051720
TAFCOD
TAF
KCOD 051720Z 0518/0618 36015G25KT P6SM BKN020
     FM052000 36012G22KT P6SM VCSH BKN016
     FM052300 01012G18KT 5SM -SHRA BR SCT007 OVC014
     FM061500 34008KT P6SM -SHRA BKN012
      AMD LTD TO CLD VIS AND WIND=



000
FTUS45 KRIW 051230 AAA
TAFCOD
TAF AMD
KCOD 051230Z 0513/0612 36015G25KT P6SM BKN020
     FM051600 36012G22KT P6SM VCSH BKN016
     FM052000 01012G18KT P6SM -SHRA OVC014
     FM060700 34008KT P6SM BKN012
      AMD LTD TO CLD VIS AND WIND=



000
FTUS45 KRIW 051230 AAA
TAFCOD
TAF AMD
KCOD 051230Z 0513/0612 36015G25KT P6SM BKN020
     FM051600 36012G22KT P6SM VCSH BKN016
     FM052000 01012G18KT P6SM -SHRA OVC014
     FM060700 34008KT P6SM BKN012
      AMD LTD TO CLD VIS AND WIND=



000
FTUS45 KRIW 051126
TAFLND
TAF
KLND 051126Z 0512/0612 VRB06KT P6SM SCT110 BKN200
     FM052000 VRB08G15KT P6SM VCTS SCT040CB BKN080
     FM060300 03008KT P6SM -SHRA OVC040
     FM060700 VRB05KT P6SM VCSH OVC015=



000
FTUS45 KRIW 051126
TAFJAC
TAF
KJAC 051126Z 0512/0612 VRB05KT P6SM FEW110 BKN200
     FM051300 21006KT P6SM VCSH SCT050 OVC080
     FM052000 22011KT P6SM VCTS SCT040CB BKN080
     FM060300 01008KT P6SM VCSH OVC060
      AMD LTD TO CLD VIS AND WIND=



000
FTUS45 KRIW 051126
TAFCOD
TAF
KCOD 051126Z 0512/0612 36015G25KT P6SM SCT070 BKN100
     FM051600 36012G22KT P6SM VCSH BKN070
     FM052000 01012G18KT P6SM -SHRA SCT012 OVC020
     FM060700 34008KT P6SM BKN012
      AMD LTD TO CLD VIS AND WIND=



000
FTUS45 KRIW 051126
TAFWRL
TAF
KWRL 051126Z 0512/0612 VRB05KT P6SM FEW120
     FM051500 32010G18KT P6SM SCT100 BKN200
     FM051700 32014KT P6SM VCSH SCT080 BKN110
     FM052300 32014G20KT P6SM -SHRA SCT020 OVC035
     FM060700 31008KT P6SM VCSH OVC025=



000
FTUS45 KRIW 051126
TAFCPR
TAF
KCPR 051126Z 0512/0612 20010G20KT P6SM SCT120 BKN200
     FM052000 36014G20KT P6SM VCTS SCT040CB BKN080
     FM060200 01013KT P6SM -RA SCT009 OVC015=



000
FTUS45 KRIW 051126
TAFRIW
TAF
KRIW 051126Z 0512/0612 27006KT P6SM SCT110 BKN200
     FM051800 VRB06KT P6SM BKN100
     FM052100 03010KT P6SM VCTS BKN090CB
     FM060300 01014KT P6SM -SHRA OVC035
     FM060800 02008KT P6SM VCSH OVC020=



000
FTUS45 KRIW 051126
TAFRKS
TAF
KRKS 051126Z 0512/0612 23011KT P6SM VCSH BKN100
     FM051500 27015KT P6SM -SHRA OVC060
     FM052300 29010KT P6SM VCSH SCT060 BKN100
     FM060700 06010KT P6SM VCSH SCT020 OVC040=



000
FTUS45 KRIW 051126
TAFJAC
TAF
KJAC 051126Z 0512/0612 VRB05KT P6SM FEW110 BKN200
     FM051300 21006KT P6SM VCSH SCT050 OVC080
     FM052000 22011KT P6SM VCTS SCT040CB BKN080
     FM060300 01008KT P6SM VCSH OVC060
      AMD LTD TO CLD VIS AND WIND=



000
FTUS45 KRIW 051126
TAFRKS
TAF
KRKS 051126Z 0512/0612 23011KT P6SM VCSH BKN100
     FM051500 27015KT P6SM -SHRA OVC060
     FM052300 29010KT P6SM VCSH SCT060 BKN100
     FM060700 06010KT P6SM VCSH SCT020 OVC040=



000
FTUS45 KRIW 051126
TAFBPI
TAF
KBPI 051126Z 0512/0612 03006KT P6SM OVC090
     FM051500 31008KT P6SM -SHRA OVC060
     FM060800 16006KT P6SM -SHRA SCT030 OVC050=



000
FTUS45 KRIW 051126
TAFBPI
TAF
KBPI 051126Z 0512/0612 03006KT P6SM OVC090
     FM051500 31008KT P6SM -SHRA OVC060
     FM060800 16006KT P6SM -SHRA SCT030 OVC050=



000
FTUS45 KRIW 051126
TAFLND
TAF
KLND 051126Z 0512/0612 VRB06KT P6SM SCT110 BKN200
     FM052000 VRB08G15KT P6SM VCTS SCT040CB BKN080
     FM060300 03008KT P6SM -SHRA OVC040
     FM060700 VRB05KT P6SM VCSH OVC015=



000
FTUS45 KRIW 051126
TAFRIW
TAF
KRIW 051126Z 0512/0612 27006KT P6SM SCT110 BKN200
     FM051800 VRB06KT P6SM BKN100
     FM052100 03010KT P6SM VCTS BKN090CB
     FM060300 01014KT P6SM -SHRA OVC035
     FM060800 02008KT P6SM VCSH OVC020=



000
FTUS45 KRIW 051126
TAFCOD
TAF
KCOD 051126Z 0512/0612 36015G25KT P6SM SCT070 BKN100
     FM051600 36012G22KT P6SM VCSH BKN070
     FM052000 01012G18KT P6SM -SHRA SCT012 OVC020
     FM060700 34008KT P6SM BKN012
      AMD LTD TO CLD VIS AND WIND=



000
FTUS45 KRIW 051126
TAFWRL
TAF
KWRL 051126Z 0512/0612 VRB05KT P6SM FEW120
     FM051500 32010G18KT P6SM SCT100 BKN200
     FM051700 32014KT P6SM VCSH SCT080 BKN110
     FM052300 32014G20KT P6SM -SHRA SCT020 OVC035
     FM060700 31008KT P6SM VCSH OVC025=



000
FTUS45 KRIW 051126
TAFCPR
TAF
KCPR 051126Z 0512/0612 20010G20KT P6SM SCT120 BKN200
     FM052000 36014G20KT P6SM VCTS SCT040CB BKN080
     FM060200 01013KT P6SM -RA SCT009 OVC015=



000
FTUS45 KRIW 050534
TAFBPI
TAF
KBPI 050534Z 0506/0606 35008KT P6SM FEW120 BKN200
     FM051500 31008KT P6SM -SHRA OVC060=



000
FTUS45 KRIW 050534
TAFJAC
TAF
KJAC 050534Z 0506/0606 VRB05KT P6SM FEW110 BKN200
     FM051300 21006KT P6SM VCSH SCT050 OVC080
     FM052000 22011KT P6SM VCTS SCT040CB BKN080
     FM060300 01008KT P6SM VCSH OVC060
      AMD LTD TO CLD VIS AND WIND=



000
FTUS45 KRIW 050534
TAFCPR
TAF
KCPR 050534Z 0506/0606 VRB06KT P6SM SCT110
     FM051200 22011KT P6SM SCT120
     FM052000 36014G20KT P6SM VCTS SCT040CB BKN080
     FM060200 01013KT P6SM -RA SCT009 OVC015=



000
FTUS45 KRIW 050534
TAFWRL
TAF
KWRL 050534Z 0506/0606 VRB05KT P6SM FEW120
     FM051500 32010KT P6SM VCSH SCT080 BKN110
     FM052300 32014G20KT P6SM -SHRA SCT020 OVC035=



000
FTUS45 KRIW 050534
TAFCOD
TAF
KCOD 050534Z 0506/0606 VRB06KT P6SM FEW070 SCT100
     FM051300 36014G20KT P6SM VCSH SCT070 BKN100
     FM052000 01012G18KT P6SM -SHRA SCT012 OVC020
      AMD LTD TO CLD VIS AND WIND=



000
FTUS45 KRIW 050534
TAFLND
TAF
KLND 050534Z 0506/0606 26008KT P6SM FEW110 SCT200
     FM052000 VRB08G15KT P6SM VCTS SCT040CB BKN080
     FM060300 03008KT P6SM -SHRA OVC040=



000
FTUS45 KRIW 050534
TAFRIW
TAF
KRIW 050534Z 0506/0606 02010KT P6SM VCSH FEW080 SCT110
     FM050800 28008KT P6SM FEW120
     FM052100 03010KT P6SM VCTS BKN090CB
     FM060300 01014KT P6SM -SHRA OVC035=



000
FTUS45 KRIW 050534
TAFRKS
TAF
KRKS 050534Z 0506/0606 23014KT P6SM SCT110 BKN200
     FM051500 27015KT P6SM -SHRA OVC060
     FM052300 29010KT P6SM VCSH SCT060 BKN100=



000
FTUS45 KRIW 042322
TAFRIW
TAF
KRIW 042322Z 0500/0524 07008KT P6SM SCT110
     FM051000 27008KT P6SM FEW120
     FM051900 03010KT P6SM VCTS SCT040CB BKN080=



000
FTUS45 KRIW 042322
TAFCOD
TAF
KCOD 042322Z 0500/0524 VRB06KT P6SM FEW070 SCT100
     FM050800 36010G18KT P6SM VCSH SCT070 BKN100
     FM051900 35015G23KT P6SM VCTS SCT040CB BKN080
      AMD LTD TO CLD VIS AND WIND=



000
FTUS45 KRIW 042322
TAFCPR
TAF
KCPR 042322Z 0500/0524 32009KT P6SM SCT120
     FM050200 09007KT P6SM VCTS SCT080CB BKN200
     FM050700 VRB06KT P6SM VCSH BKN100
     FM051200 22011KT P6SM SCT120
     FM051900 35013KT P6SM VCTS SCT040CB BKN080=



000
FTUS45 KRIW 042322
TAFJAC
TAF
KJAC 042322Z 0500/0524 26010KT P6SM FEW100 SCT200
     FM050100 VRB05KT P6SM FEW110 BKN200
     FM051900 23010KT P6SM VCTS SCT040CB BKN080
      AMD LTD TO CLD VIS AND WIND=



000
FTUS45 KRIW 042322
TAFLND
TAF
KLND 042322Z 0500/0524 03008KT P6SM SCT110
     FM050300 28007KT 5SM FU SCT120
     FM050700 26008KT P6SM FEW120 SCT200
     FM051900 35010KT P6SM VCTS SCT040CB BKN080=



000
FTUS45 KRIW 042322
TAFWRL
TAF
KWRL 042322Z 0500/0524 03007KT P6SM SCT120
     FM050700 31007KT P6SM VCSH BKN100
     FM051900 35012KT P6SM VCTS SCT040CB BKN080=



000
FTUS45 KRIW 042322
TAFBPI
TAF
KBPI 042322Z 0500/0524 30013G21KT P6SM FEW110 SCT200
     FM050200 35008KT P6SM FEW120 BKN200
     FM051900 35010KT P6SM VCTS SCT040CB BKN080=



000
FTUS45 KRIW 042322
TAFRKS
TAF
KRKS 042322Z 0500/0524 27012G18KT P6SM VCTS SCT080CB BKN200
     FM050300 23012KT P6SM SCT110 BKN200
     FM051900 33010KT P6SM VCTS SCT040CB BKN080=



000
FTUS45 KRIW 042322
TAFRIW
TAF
KRIW 042322Z 0500/0524 07008KT P6SM SCT110
     FM051000 27008KT P6SM FEW120
     FM051900 03010KT P6SM VCTS SCT040CB BKN080=



000
FTUS45 KRIW 042322
TAFBPI
TAF
KBPI 042322Z 0500/0524 30013G21KT P6SM FEW110 SCT200
     FM050200 35008KT P6SM FEW120 BKN200
     FM051900 35010KT P6SM VCTS SCT040CB BKN080=



000
FTUS45 KRIW 042322
TAFWRL
TAF
KWRL 042322Z 0500/0524 03007KT P6SM SCT120
     FM050700 31007KT P6SM VCSH BKN100
     FM051900 35012KT P6SM VCTS SCT040CB BKN080=



000
FTUS45 KRIW 042322
TAFJAC
TAF
KJAC 042322Z 0500/0524 26010KT P6SM FEW100 SCT200
     FM050100 VRB05KT P6SM FEW110 BKN200
     FM051900 23010KT P6SM VCTS SCT040CB BKN080
      AMD LTD TO CLD VIS AND WIND=



000
FTUS45 KRIW 042322
TAFCPR
TAF
KCPR 042322Z 0500/0524 32009KT P6SM SCT120
     FM050200 09007KT P6SM VCTS SCT080CB BKN200
     FM050700 VRB06KT P6SM VCSH BKN100
     FM051200 22011KT P6SM SCT120
     FM051900 35013KT P6SM VCTS SCT040CB BKN080=



000
FTUS45 KRIW 042322
TAFLND
TAF
KLND 042322Z 0500/0524 03008KT P6SM SCT110
     FM050300 28007KT 5SM FU SCT120
     FM050700 26008KT P6SM FEW120 SCT200
     FM051900 35010KT P6SM VCTS SCT040CB BKN080=



000
FTUS45 KRIW 042322
TAFCOD
TAF
KCOD 042322Z 0500/0524 VRB06KT P6SM FEW070 SCT100
     FM050800 36010G18KT P6SM VCSH SCT070 BKN100
     FM051900 35015G23KT P6SM VCTS SCT040CB BKN080
      AMD LTD TO CLD VIS AND WIND=



000
FTUS45 KRIW 042322
TAFRKS
TAF
KRKS 042322Z 0500/0524 27012G18KT P6SM VCTS SCT080CB BKN200
     FM050300 23012KT P6SM SCT110 BKN200
     FM051900 33010KT P6SM VCTS SCT040CB BKN080=



000
FTUS45 KRIW 041720
TAFWRL
TAF
KWRL 041720Z 0418/0518 15007KT P6SM FEW120 SCT200
     FM041900 02008KT P6SM SCT120
     FM050700 31007KT P6SM VCSH BKN100=



000
FTUS45 KRIW 041720
TAFCPR
TAF
KCPR 041720Z 0418/0518 25012KT P6SM SCT120
     FM042200 34008KT P6SM VCTS SCT090CB
     FM050300 09010KT P6SM VCSH SCT100
     FM050800 22007KT P6SM SCT120=



000
FTUS45 KRIW 041720
TAFJAC
TAF
KJAC 041720Z 0418/0518 21009KT P6SM FEW110
     FM042100 28011KT P6SM SCT100
     FM050100 VRB05KT P6SM FEW110 BKN200
      AMD LTD TO CLD VIS AND WIND=



000
FTUS45 KRIW 041720
TAFRKS
TAF
KRKS 041720Z 0418/0518 24008KT P6SM FEW120 SCT200
     FM042100 27012G18KT P6SM VCTS SCT080CB BKN200
     FM050300 23007KT P6SM SCT110 BKN200=



000
FTUS45 KRIW 041720
TAFLND
TAF
KLND 041720Z 0418/0518 03008KT P6SM SCT110
     FM050300 28007KT 5SM FU SCT120
     FM050700 26008KT P6SM FEW120 SCT200=



000
FTUS45 KRIW 041720
TAFRIW
TAF
KRIW 041720Z 0418/0518 27006KT P6SM FEW120 SCT200
     FM042000 03009KT P6SM SCT110=



000
FTUS45 KRIW 041720
TAFCOD
TAF
KCOD 041720Z 0418/0518 22007KT P6SM FEW120
     FM041900 06009KT P6SM FEW070 SCT100
     FM050200 34007KT P6SM FEW070 SCT100
     FM050800 36010G18KT P6SM VCSH SCT070 BKN100
      AMD LTD TO CLD VIS AND WIND=



000
FTUS45 KRIW 041720
TAFBPI
TAF
KBPI 041720Z 0418/0518 VRB05KT P6SM FEW120 SCT200
     FM041900 30013G23KT P6SM SCT110 BKN200
     FM050200 35008KT P6SM FEW120 BKN200=



000
FTUS45 KRIW 041120
TAFCPR
TAF
KCPR 041120Z 0412/0512 VRB06KT P6SM SCT120
     FM041700 25012KT P6SM SCT120
     FM042200 34008KT P6SM VCTS SCT090CB
     FM050300 09010KT P6SM VCSH SCT100
     FM050800 22007KT P6SM SCT120=



000
FTUS45 KRIW 041120
TAFWRL
TAF
KWRL 041120Z 0412/0512 15007KT P6SM FEW120 SCT200
     FM041900 02008KT P6SM SCT120
     FM050700 31007KT P6SM VCSH BKN100=



000
FTUS45 KRIW 041120
TAFLND
TAF
KLND 041120Z 0412/0512 VRB06KT P6SM FEW120 SCT200
     FM041800 03008KT P6SM SCT110
     FM050300 28007KT 5SM FU SCT120
     FM050700 26008KT P6SM FEW120 SCT200=



000
FTUS45 KRIW 041120
TAFRKS
TAF
KRKS 041120Z 0412/0512 24008KT P6SM FEW120 SCT200
     FM042100 27012G18KT P6SM VCTS SCT080CB BKN200
     FM050300 23007KT P6SM SCT110 BKN200=



000
FTUS45 KRIW 041120
TAFRIW
TAF
KRIW 041120Z 0412/0512 27006KT P6SM FEW120 SCT200
     FM042000 03009KT P6SM SCT110=



000
FTUS45 KRIW 041120
TAFJAC
TAF
KJAC 041120Z 0412/0512 VRB05KT P6SM FEW120 SCT200
     FM041700 21009KT P6SM FEW110
     FM042100 28011KT P6SM SCT100
     FM050100 VRB05KT P6SM FEW110 BKN200
      AMD LTD TO CLD VIS AND WIND=



000
FTUS45 KRIW 041120
TAFCOD
TAF
KCOD 041120Z 0412/0512 22007KT P6SM FEW120
     FM041900 06009KT P6SM FEW070 SCT100
     FM050200 34007KT P6SM FEW070 SCT100
     FM050800 36010G18KT P6SM VCSH SCT070 BKN100
      AMD LTD TO CLD VIS AND WIND=



000
FTUS45 KRIW 041120
TAFBPI
TAF
KBPI 041120Z 0412/0512 VRB05KT P6SM FEW120 SCT200
     FM041900 30013G23KT P6SM SCT110 BKN200
     FM050200 35008KT P6SM FEW120 BKN200=



000
FTUS45 KRIW 040531
TAFJAC
TAF
KJAC 040531Z 0406/0506 VRB05KT P6SM FEW120 SCT200
     FM041700 21009KT P6SM FEW110
     FM042100 28011KT P6SM SCT100
     FM050100 VRB05KT P6SM FEW110 BKN200
      AMD LTD TO CLD VIS AND WIND=



000
FTUS45 KRIW 040531
TAFRIW
TAF
KRIW 040531Z 0406/0506 06012KT P6SM FEW120 SCT200
     FM040900 VRB06KT P6SM SCT200
     FM042000 03009KT P6SM SCT110=



000
FTUS45 KRIW 040531
TAFCPR
TAF
KCPR 040531Z 0406/0506 VRB06KT P6SM VCSH SCT100
     FM040800 22007KT P6SM FEW120 SCT200
     FM041700 25012KT P6SM SCT120
     FM042200 34008KT P6SM VCTS SCT090CB
     FM050300 09010KT P6SM VCSH SCT100=



000
FTUS45 KRIW 040531
TAFWRL
TAF
KWRL 040531Z 0406/0506 18007KT P6SM FEW120 SCT200
     FM041900 02008KT P6SM SCT120=



000
FTUS45 KRIW 040531
TAFLND
TAF
KLND 040531Z 0406/0506 26007KT P6SM FEW120 SCT200
     FM041800 03008KT P6SM SCT110
     FM050300 28007KT 5SM FU SCT120=



000
FTUS45 KRIW 040531
TAFCOD
TAF
KCOD 040531Z 0406/0506 22007KT P6SM FEW120
     FM041900 06009KT P6SM FEW070 SCT100
     FM050200 34007KT P6SM FEW070 SCT100
      AMD LTD TO CLD VIS AND WIND=



000
FTUS45 KRIW 040531
TAFRKS
TAF
KRKS 040531Z 0406/0506 31007KT P6SM FEW120 SCT200
     FM040800 24008KT P6SM SCT200
     FM042100 27012G18KT P6SM VCTS SCT080CB BKN200
     FM050300 23007KT P6SM SCT110 BKN200=



000
FTUS45 KRIW 040531
TAFBPI
TAF
KBPI 040531Z 0406/0506 VRB05KT P6SM FEW120 SCT200
     FM041900 30013G23KT P6SM SCT110 BKN200
     FM050200 35008KT P6SM FEW120 BKN200=



000
FTUS45 KRIW 032331
TAFCOD
TAF
KCOD 032331Z 0400/0424 04008KT P6SM VCTS SCT060CB BKN120
     FM040200 02007KT P6SM BKN100
     FM040600 22007KT P6SM FEW120
     FM041900 07010KT P6SM SCT070 BKN120
      AMD LTD TO CLD VIS AND WIND=



000
FTUS45 KRIW 032331
TAFRIW
TAF
KRIW 032331Z 0400/0424 VRB06KT P6SM SCT110
     FM040700 29008KT P6SM FEW120=



000
FTUS45 KRIW 032331
TAFJAC
TAF
KJAC 032331Z 0400/0424 26011KT P6SM VCSH SCT080 BKN110
     FM040100 28011KT P6SM SCT090
     FM040300 36006KT P6SM FEW120
     FM041700 19009KT P6SM SCT120
      AMD LTD TO CLD VIS AND WIND=



000
FTUS45 KRIW 032331
TAFWRL
TAF
KWRL 032331Z 0400/0424 14007KT P6SM VCTS SCT080CB BKN120
     FM040300 12006KT P6SM BKN100
     FM040600 16006KT P6SM FEW120
     FM041800 02008KT P6SM SCT120=



000
FTUS45 KRIW 032331
TAFCPR
TAF
KCPR 032331Z 0400/0424 09008KT P6SM VCTS SCT070CB BKN120
     FM040300 09011KT P6SM BKN100
     FM040800 22006KT P6SM SCT120
     FM041800 25012KT P6SM SCT120=



000
FTUS45 KRIW 032331
TAFRKS
TAF
KRKS 032331Z 0400/0424 29010KT P6SM SCT100
     FM040300 35007KT P6SM SCT110
     FM040800 24007KT P6SM SKC
     FM041800 25010KT P6SM SCT120=



000
FTUS45 KRIW 032331
TAFLND
TAF
KLND 032331Z 0400/0424 14007KT P6SM SCT110
     FM040200 34007KT P6SM SCT120
     FM040700 24006KT P6SM FEW120
     FM041800 07008KT P6SM SCT120=



000
FTUS45 KRIW 032331
TAFBPI
TAF
KBPI 032331Z 0400/0424 32011KT P6SM SCT100
     FM040200 35010KT P6SM SCT100
     FM040700 VRB05KT P6SM FEW150=



000
FTUS45 KRIW 031720
TAFRKS
TAF
KRKS 031720Z 0318/0418 VRB06KT P6SM FEW120
     FM032100 29010KT P6SM SCT100
     FM040300 35007KT P6SM SCT110
     FM040800 24007KT P6SM SKC=



000
FTUS45 KRIW 031720
TAFRIW
TAF
KRIW 031720Z 0318/0418 VRB06KT P6SM SCT090
     FM032000 03008KT P6SM VCTS SCT080CB SCT110
     FM040300 05009KT P6SM SCT090 BKN120
     FM040700 29008KT P6SM FEW120=



000
FTUS45 KRIW 031720
TAFJAC
TAF
KJAC 031720Z 0318/0418 VRB04KT P6SM SCT110
     FM031900 22007KT P6SM VCSH SCT080 BKN110
     FM032100 28011KT P6SM SCT090
     FM040200 36006KT P6SM FEW120
      AMD LTD TO CLD VIS AND WIND=



000
FTUS45 KRIW 031720
TAFBPI
TAF
KBPI 031720Z 0318/0418 VRB05KT P6SM SKC
     FM032000 29010KT P6SM SCT100
     FM040000 35010KT P6SM SCT100
     FM040700 VRB05KT P6SM FEW150=



000
FTUS45 KRIW 031720
TAFCPR
TAF
KCPR 031720Z 0318/0418 VRB06KT P6SM FEW120
     FM032200 06007KT P6SM VCTS SCT070CB BKN120
     FM040300 09011KT P6SM BKN100
     FM040800 22006KT P6SM SCT120=



000
FTUS45 KRIW 031720
TAFCOD
TAF
KCOD 031720Z 0318/0418 VRB05KT P6SM SCT110
     FM032000 11008KT P6SM VCTS SCT060CB BKN120
     FM040100 04007KT P6SM BKN100
     FM040600 22007KT P6SM FEW120
      AMD LTD TO CLD VIS AND WIND=



000
FTUS45 KRIW 031720
TAFLND
TAF
KLND 031720Z 0318/0418 VRB05KT P6SM SCT080
     FM032000 13007KT P6SM VCTS SCT060CB BKN120
     FM040200 34007KT P6SM SCT090 BKN120
     FM040700 24006KT P6SM FEW120=



000
FTUS45 KRIW 031720
TAFWRL
TAF
KWRL 031720Z 0318/0418 14005KT P6SM SCT100
     FM032000 13007KT P6SM VCTS SCT080CB BKN120
     FM040300 12006KT P6SM BKN100
     FM040600 16006KT P6SM FEW120=



000
FTUS45 KRIW 031720
TAFRKS
TAF
KRKS 031720Z 0318/0418 VRB06KT P6SM FEW120
     FM032100 29010KT P6SM SCT100
     FM040300 35007KT P6SM SCT110
     FM040800 24007KT P6SM SKC=



000
FTUS45 KRIW 031720
TAFRIW
TAF
KRIW 031720Z 0318/0418 VRB06KT P6SM SCT090
     FM032000 03008KT P6SM VCTS SCT080CB SCT110
     FM040300 05009KT P6SM SCT090 BKN120
     FM040700 29008KT P6SM FEW120=



000
FTUS45 KRIW 031720
TAFJAC
TAF
KJAC 031720Z 0318/0418 VRB04KT P6SM SCT110
     FM031900 22007KT P6SM VCSH SCT080 BKN110
     FM032100 28011KT P6SM SCT090
     FM040200 36006KT P6SM FEW120
      AMD LTD TO CLD VIS AND WIND=



000
FTUS45 KRIW 031720
TAFBPI
TAF
KBPI 031720Z 0318/0418 VRB05KT P6SM SKC
     FM032000 29010KT P6SM SCT100
     FM040000 35010KT P6SM SCT100
     FM040700 VRB05KT P6SM FEW150=



000
FTUS45 KRIW 031720
TAFCOD
TAF
KCOD 031720Z 0318/0418 VRB05KT P6SM SCT110
     FM032000 11008KT P6SM VCTS SCT060CB BKN120
     FM040100 04007KT P6SM BKN100
     FM040600 22007KT P6SM FEW120
      AMD LTD TO CLD VIS AND WIND=



000
FTUS45 KRIW 031720
TAFWRL
TAF
KWRL 031720Z 0318/0418 14005KT P6SM SCT100
     FM032000 13007KT P6SM VCTS SCT080CB BKN120
     FM040300 12006KT P6SM BKN100
     FM040600 16006KT P6SM FEW120=



000
FTUS45 KRIW 031720
TAFCPR
TAF
KCPR 031720Z 0318/0418 VRB06KT P6SM FEW120
     FM032200 06007KT P6SM VCTS SCT070CB BKN120
     FM040300 09011KT P6SM BKN100
     FM040800 22006KT P6SM SCT120=



000
FTUS45 KRIW 031720
TAFLND
TAF
KLND 031720Z 0318/0418 VRB05KT P6SM SCT080
     FM032000 13007KT P6SM VCTS SCT060CB BKN120
     FM040200 34007KT P6SM SCT090 BKN120
     FM040700 24006KT P6SM FEW120=



000
FTUS45 KRIW 031122
TAFCOD
TAF
KCOD 031122Z 0312/0412 VRB05KT P6SM SCT110
     FM032000 11008KT P6SM VCTS SCT060CB BKN120
     FM040100 04007KT P6SM BKN100
     FM040600 22007KT P6SM FEW120
      AMD LTD TO CLD VIS AND WIND=



000
FTUS45 KRIW 031122
TAFJAC
TAF
KJAC 031122Z 0312/0412 VRB04KT P6SM SKC
     FM031700 22007KT P6SM VCSH SCT080 BKN110
     FM032100 28011KT P6SM SCT090
     FM040200 36006KT P6SM FEW120
      AMD LTD TO CLD VIS AND WIND=



000
FTUS45 KRIW 031122
TAFLND
TAF
KLND 031122Z 0312/0412 VRB05KT P6SM SKC
     FM031700 VRB05KT P6SM SCT080
     FM032000 13007KT P6SM VCTS SCT060CB BKN120
     FM040200 34007KT P6SM SCT090 BKN120
     FM040700 24006KT P6SM FEW120=



000
FTUS45 KRIW 031122
TAFCPR
TAF
KCPR 031122Z 0312/0412 VRB06KT P6SM FEW120
     FM032200 06007KT P6SM VCTS SCT080CB BKN120
     FM040300 09011KT P6SM BKN100
     FM040800 22006KT P6SM SCT120=



000
FTUS45 KRIW 031122
TAFCPR
TAF
KCPR 031122Z 0312/0412 VRB06KT P6SM FEW120
     FM032200 06007KT P6SM VCTS SCT080CB BKN120
     FM040300 09011KT P6SM BKN100
     FM040800 22006KT P6SM SCT120=



000
FTUS45 KRIW 031122
TAFCOD
TAF
KCOD 031122Z 0312/0412 VRB05KT P6SM SCT110
     FM032000 11008KT P6SM VCTS SCT060CB BKN120
     FM040100 04007KT P6SM BKN100
     FM040600 22007KT P6SM FEW120
      AMD LTD TO CLD VIS AND WIND=



000
FTUS45 KRIW 031122
TAFBPI
TAF
KBPI 031122Z 0312/0412 VRB05KT P6SM SKC
     FM032000 29010KT P6SM SCT100
     FM040000 35010KT P6SM SCT100
     FM040700 VRB05KT P6SM FEW150=



000
FTUS45 KRIW 031122
TAFRIW
TAF
KRIW 031122Z 0312/0412 31006KT P6SM SKC
     FM031700 VRB06KT P6SM SCT090
     FM032000 03008KT P6SM VCTS SCT080CB SCT110
     FM040300 05009KT P6SM SCT090 BKN120
     FM040700 29008KT P6SM FEW120=



000
FTUS45 KRIW 031122
TAFRKS
TAF
KRKS 031122Z 0312/0412 08007KT P6SM SCT120
     FM031600 VRB06KT P6SM FEW120
     FM032100 29010KT P6SM SCT100
     FM040300 35007KT P6SM SCT110
     FM040800 24007KT P6SM SKC=



000
FTUS45 KRIW 031122
TAFWRL
TAF
KWRL 031122Z 0312/0412 VRB05KT P6SM SKC
     FM031800 14005KT P6SM SCT100
     FM032000 13007KT P6SM VCTS SCT080CB BKN120
     FM040300 12006KT P6SM BKN100
     FM040600 16006KT P6SM FEW120=



000
FTUS45 KRIW 031122
TAFJAC
TAF
KJAC 031122Z 0312/0412 VRB04KT P6SM SKC
     FM031700 22007KT P6SM VCSH SCT080 BKN110
     FM032100 28011KT P6SM SCT090
     FM040200 36006KT P6SM FEW120
      AMD LTD TO CLD VIS AND WIND=



000
FTUS45 KRIW 031122
TAFLND
TAF
KLND 031122Z 0312/0412 VRB05KT P6SM SKC
     FM031700 VRB05KT P6SM SCT080
     FM032000 13007KT P6SM VCTS SCT060CB BKN120
     FM040200 34007KT P6SM SCT090 BKN120
     FM040700 24006KT P6SM FEW120=



000
FTUS45 KRIW 031122
TAFBPI
TAF
KBPI 031122Z 0312/0412 VRB05KT P6SM SKC
     FM032000 29010KT P6SM SCT100
     FM040000 35010KT P6SM SCT100
     FM040700 VRB05KT P6SM FEW150=



000
FTUS45 KRIW 031122
TAFRIW
TAF
KRIW 031122Z 0312/0412 31006KT P6SM SKC
     FM031700 VRB06KT P6SM SCT090
     FM032000 03008KT P6SM VCTS SCT080CB SCT110
     FM040300 05009KT P6SM SCT090 BKN120
     FM040700 29008KT P6SM FEW120=



000
FTUS45 KRIW 031122
TAFWRL
TAF
KWRL 031122Z 0312/0412 VRB05KT P6SM SKC
     FM031800 14005KT P6SM SCT100
     FM032000 13007KT P6SM VCTS SCT080CB BKN120
     FM040300 12006KT P6SM BKN100
     FM040600 16006KT P6SM FEW120=



000
FTUS45 KRIW 031122
TAFRKS
TAF
KRKS 031122Z 0312/0412 08007KT P6SM SCT120
     FM031600 VRB06KT P6SM FEW120
     FM032100 29010KT P6SM SCT100
     FM040300 35007KT P6SM SCT110
     FM040800 24007KT P6SM SKC=



000
FTUS45 KRIW 030531
TAFCOD
TAF
KCOD 030531Z 0306/0406 VRB05KT P6SM SCT110
     FM032000 11008KT P6SM VCTS SCT060CB BKN120
     FM040100 04007KT P6SM BKN100
      AMD LTD TO CLD VIS AND WIND=



000
FTUS45 KRIW 030531
TAFWRL
TAF
KWRL 030531Z 0306/0406 14007KT P6SM FEW110
     FM032000 13007KT P6SM VCTS SCT080CB BKN120
     FM040300 12006KT P6SM BKN100=



000
FTUS45 KRIW 030531
TAFRIW
TAF
KRIW 030531Z 0306/0406 09011KT P6SM SCT080 BKN120
     FM031000 VRB06KT P6SM FEW120
     FM032000 03008KT P6SM VCTS SCT080CB SCT110
     FM040300 05009KT P6SM SCT090 BKN120=



000
FTUS45 KRIW 030531
TAFLND
TAF
KLND 030531Z 0306/0406 24006KT P6SM SCT080 BKN120
     FM031000 VRB05KT P6SM FEW120
     FM032000 13007KT P6SM VCTS SCT060CB BKN120
     FM040200 34007KT P6SM SCT090 BKN120=



000
FTUS45 KRIW 030531
TAFJAC
TAF
KJAC 030531Z 0306/0406 01006KT P6SM SKC
     FM031700 22007KT P6SM VCSH SCT080 BKN110
     FM032100 28011KT P6SM SCT090
     FM040200 36006KT P6SM FEW120
      AMD LTD TO CLD VIS AND WIND=



000
FTUS45 KRIW 030531
TAFCPR
TAF
KCPR 030531Z 0306/0406 09007KT P6SM BKN100
     FM030800 VRB06KT P6SM FEW120
     FM032200 06007KT P6SM VCTS SCT080CB BKN120
     FM040300 09011KT P6SM BKN100=



000
FTUS45 KRIW 030531
TAFRKS
TAF
KRKS 030531Z 0306/0406 06007KT P6SM SCT120
     FM031600 VRB06KT P6SM FEW120
     FM032100 29010KT P6SM SCT100
     FM040300 35007KT P6SM SCT110=



000
FTUS45 KRIW 030531
TAFBPI
TAF
KBPI 030531Z 0306/0406 VRB05KT P6SM SKC
     FM032000 29010KT P6SM SCT100
     FM040000 35010KT P6SM SCT100=



000
FTUS45 KRIW 022329
TAFRIW
TAF
KRIW 022329Z 0300/0324 06010KT P6SM SCT110
     FM030400 08009KT P6SM FEW120
     FM031000 VRB06KT P6SM SKC
     FM032000 13007KT P6SM SCT120=



000
FTUS45 KRIW 022329
TAFCOD
TAF
KCOD 022329Z 0300/0324 36011G17KT P6SM FEW070 SCT110
     FM030300 VRB05KT P6SM SCT120
     FM032100 06010KT P6SM VCTS SCT060CB BKN120
      AMD LTD TO CLD VIS AND WIND=



000
FTUS45 KRIW 022329
TAFLND
TAF
KLND 022329Z 0300/0324 34007KT P6SM SCT110
     FM030500 VRB05KT P6SM FEW120
     FM032000 13007KT P6SM VCTS SCT060CB BKN120=



000
FTUS45 KRIW 022329
TAFJAC
TAF
KJAC 022329Z 0300/0324 30007KT P6SM FEW100
     FM030300 01006KT P6SM SKC
     FM031800 19007KT P6SM SCT080
      AMD LTD TO CLD VIS AND WIND=



000
FTUS45 KRIW 022329
TAFBPI
TAF
KBPI 022329Z 0300/0324 36008KT P6SM FEW100
     FM030600 VRB05KT P6SM SKC
     FM031900 21008KT P6SM SCT100=



000
FTUS45 KRIW 022329
TAFCPR
TAF
KCPR 022329Z 0300/0324 04010KT P6SM FEW070 SCT100
     FM030800 VRB06KT P6SM SKC
     FM032200 06007KT P6SM VCTS SCT080CB=



000
FTUS45 KRIW 022329
TAFRKS
TAF
KRKS 022329Z 0300/0324 VRB10G18KT P6SM VCTS SCT070CB BKN120
     FM030200 06011KT P6SM SCT110
     FM031600 VRB06KT P6SM FEW120
     FM032100 29010KT P6SM SCT100=



000
FTUS45 KRIW 022329
TAFJAC
TAF
KJAC 022329Z 0300/0324 30007KT P6SM FEW100
     FM030300 01006KT P6SM SKC
     FM031800 19007KT P6SM SCT080
      AMD LTD TO CLD VIS AND WIND=



000
FTUS45 KRIW 022329
TAFCPR
TAF
KCPR 022329Z 0300/0324 04010KT P6SM FEW070 SCT100
     FM030800 VRB06KT P6SM SKC
     FM032200 06007KT P6SM VCTS SCT080CB=



000
FTUS45 KRIW 022329
TAFWRL
TAF
KWRL 022329Z 0300/0324 03007KT P6SM SCT110
     FM030500 14007KT P6SM FEW120
     FM032000 13007KT P6SM SCT120=



000
FTUS45 KRIW 022329
TAFCOD
TAF
KCOD 022329Z 0300/0324 36011G17KT P6SM FEW070 SCT110
     FM030300 VRB05KT P6SM SCT120
     FM032100 06010KT P6SM VCTS SCT060CB BKN120
      AMD LTD TO CLD VIS AND WIND=



000
FTUS45 KRIW 022329
TAFRIW
TAF
KRIW 022329Z 0300/0324 06010KT P6SM SCT110
     FM030400 08009KT P6SM FEW120
     FM031000 VRB06KT P6SM SKC
     FM032000 13007KT P6SM SCT120=



000
FTUS45 KRIW 022329
TAFBPI
TAF
KBPI 022329Z 0300/0324 36008KT P6SM FEW100
     FM030600 VRB05KT P6SM SKC
     FM031900 21008KT P6SM SCT100=



000
FTUS45 KRIW 022329
TAFLND
TAF
KLND 022329Z 0300/0324 34007KT P6SM SCT110
     FM030500 VRB05KT P6SM FEW120
     FM032000 13007KT P6SM VCTS SCT060CB BKN120=



000
FTUS45 KRIW 022329
TAFWRL
TAF
KWRL 022329Z 0300/0324 03007KT P6SM SCT110
     FM030500 14007KT P6SM FEW120
     FM032000 13007KT P6SM SCT120=



000
FTUS45 KRIW 022329
TAFRKS
TAF
KRKS 022329Z 0300/0324 VRB10G18KT P6SM VCTS SCT070CB BKN120
     FM030200 06011KT P6SM SCT110
     FM031600 VRB06KT P6SM FEW120
     FM032100 29010KT P6SM SCT100=



    US Dept of Commerce
    National Oceanic and Atmospheric Administration
    National Weather Service
    1325 East West Highway
    Silver Spring, MD 20910
    Page Author: NWS Internet Services Team
Disclaimer
Information Quality
Credits
Glossary
Privacy Policy
Freedom of Information Act (FOIA)
About Us
Career Opportunities